sensor_id;sensor_type;location;lat;lon;timestamp;P1;durP1;ratioP1;P2;durP2;ratioP2
32080;SDS011;18593;51.426;7.030;2023-05-10T00:01:17;9.73;;;6.22;;
32080;SDS011;18593;51.426;7.030;2023-05-10T00:03:46;9.82;;;6.45;;
32080;SDS011;18593;51.426;7.030;2023-05-10T00:06:13;9.68;;;6.45;;
32080;SDS011;18593;51.426;7.030;2023-05-10T00:08:40;11.85;;;7.10;;
32080;SDS011;18593;51.426;7.030;2023-05-10T00:11:07;10.75;;;7.40;;
32080;SDS011;18593;51.426;7.030;2023-05-10T00:13:35;12.68;;;7.88;;
32080;SDS011;18593;51.426;7.030;2023-05-10T00:16:02;11.32;;;7.15;;
32080;SDS011;18593;51.426;7.030;2023-05-10T00:18:30;11.50;;;8.07;;
32080;SDS011;18593;51.426;7.030;2023-05-10T00:20:58;15.35;;;8.50;;
32080;SDS011;18593;51.426;7.030;2023-05-10T00:23:26;13.38;;;7.70;;
32080;SDS011;18593;51.426;7.030;2023-05-10T00:25:53;14.65;;;8.82;;
32080;SDS011;18593;51.426;7.030;2023-05-10T00:28:20;14.32;;;8.60;;
32080;SDS011;18593;51.426;7.030;2023-05-10T00:30:47;13.43;;;8.90;;
32080;SDS011;18593;51.426;7.030;2023-05-10T00:33:14;12.25;;;8.65;;
32080;SDS011;18593;51.426;7.030;2023-05-10T00:35:42;14.60;;;9.23;;
32080;SDS011;18593;51.426;7.030;2023-05-10T00:38:10;13.45;;;9.73;;
32080;SDS011;18593;51.426;7.030;2023-05-10T00:40:37;16.70;;;10.45;;
32080;SDS011;18593;51.426;7.030;2023-05-10T00:43:10;14.52;;;9.70;;
32080;SDS011;18593;51.426;7.030;2023-05-10T00:45:37;16.58;;;9.82;;
32080;SDS011;18593;51.426;7.030;2023-05-10T00:48:06;15.52;;;9.75;;
32080;SDS011;18593;51.426;7.030;2023-05-10T00:50:34;15.52;;;9.40;;
32080;SDS011;18593;51.426;7.030;2023-05-10T00:53:01;13.85;;;9.63;;
32080;SDS011;18593;51.426;7.030;2023-05-10T00:55:31;12.88;;;9.73;;
32080;SDS011;18593;51.426;7.030;2023-05-10T00:57:58;12.20;;;9.50;;
32080;SDS011;18593;51.426;7.030;2023-05-10T01:00:25;14.63;;;9.45;;
32080;SDS011;18593;51.426;7.030;2023-05-10T01:02:53;14.55;;;9.65;;
32080;SDS011;18593;51.426;7.030;2023-05-10T01:05:21;14.77;;;9.55;;
32080;SDS011;18593;51.426;7.030;2023-05-10T01:07:49;14.88;;;11.10;;
32080;SDS011;18593;51.426;7.030;2023-05-10T01:14:18;21.95;;;14.40;;
32080;SDS011;18593;51.426;7.030;2023-05-10T01:16:47;22.60;;;15.35;;
32080;SDS011;18593;51.426;7.030;2023-05-10T01:19:17;25.20;;;15.40;;
32080;SDS011;18593;51.426;7.030;2023-05-10T01:21:49;22.85;;;13.85;;
32080;SDS011;18593;51.426;7.030;2023-05-10T01:24:48;24.87;;;15.33;;
32080;SDS011;18593;51.426;7.030;2023-05-10T01:27:54;27.17;;;14.25;;
32080;SDS011;18593;51.426;7.030;2023-05-10T01:31:20;27.13;;;14.15;;
32080;SDS011;18593;51.426;7.030;2023-05-10T01:34:12;23.90;;;14.82;;
32080;SDS011;18593;51.426;7.030;2023-05-10T01:36:47;23.10;;;15.45;;
32080;SDS011;18593;51.426;7.030;2023-05-10T01:39:23;26.13;;;16.20;;
32080;SDS011;18593;51.426;7.030;2023-05-10T01:42:06;26.85;;;16.65;;
32080;SDS011;18593;51.426;7.030;2023-05-10T01:44:37;25.08;;;15.73;;
32080;SDS011;18593;51.426;7.030;2023-05-10T01:47:13;26.67;;;16.48;;
32080;SDS011;18593;51.426;7.030;2023-05-10T01:49:49;27.23;;;16.83;;
32080;SDS011;18593;51.426;7.030;2023-05-10T01:52:20;26.70;;;17.23;;
32080;SDS011;18593;51.426;7.030;2023-05-10T01:55:08;25.75;;;16.13;;
32080;SDS011;18593;51.426;7.030;2023-05-10T01:57:42;26.33;;;16.73;;
32080;SDS011;18593;51.426;7.030;2023-05-10T02:00:12;26.60;;;16.05;;
32080;SDS011;18593;51.426;7.030;2023-05-10T02:02:42;24.63;;;15.55;;
32080;SDS011;18593;51.426;7.030;2023-05-10T02:05:15;25.90;;;15.60;;
32080;SDS011;18593;51.426;7.030;2023-05-10T02:07:44;25.48;;;15.90;;
32080;SDS011;18593;51.426;7.030;2023-05-10T02:10:12;24.35;;;15.60;;
32080;SDS011;18593;51.426;7.030;2023-05-10T02:12:41;25.98;;;16.33;;
32080;SDS011;18593;51.426;7.030;2023-05-10T02:15:12;24.42;;;15.25;;
32080;SDS011;18593;51.426;7.030;2023-05-10T02:17:44;26.10;;;15.90;;
32080;SDS011;18593;51.426;7.030;2023-05-10T02:20:15;23.55;;;15.45;;
32080;SDS011;18593;51.426;7.030;2023-05-10T02:22:44;26.98;;;16.60;;
32080;SDS011;18593;51.426;7.030;2023-05-10T02:25:13;23.38;;;15.50;;
32080;SDS011;18593;51.426;7.030;2023-05-10T02:27:41;23.70;;;15.60;;
32080;SDS011;18593;51.426;7.030;2023-05-10T02:30:10;24.13;;;15.38;;
32080;SDS011;18593;51.426;7.030;2023-05-10T02:32:39;28.25;;;17.20;;
32080;SDS011;18593;51.426;7.030;2023-05-10T02:35:08;25.98;;;15.05;;
32080;SDS011;18593;51.426;7.030;2023-05-10T02:37:38;26.40;;;16.25;;
32080;SDS011;18593;51.426;7.030;2023-05-10T02:40:07;24.80;;;15.77;;
32080;SDS011;18593;51.426;7.030;2023-05-10T02:42:37;24.50;;;15.77;;
32080;SDS011;18593;51.426;7.030;2023-05-10T02:45:08;26.25;;;16.40;;
32080;SDS011;18593;51.426;7.030;2023-05-10T02:47:41;23.17;;;15.48;;
32080;SDS011;18593;51.426;7.030;2023-05-10T02:50:09;24.77;;;15.23;;
32080;SDS011;18593;51.426;7.030;2023-05-10T02:52:38;23.48;;;14.98;;
32080;SDS011;18593;51.426;7.030;2023-05-10T02:55:11;21.88;;;14.20;;
32080;SDS011;18593;51.426;7.030;2023-05-10T02:57:43;22.60;;;15.18;;
32080;SDS011;18593;51.426;7.030;2023-05-10T03:00:18;22.27;;;15.32;;
32080;SDS011;18593;51.426;7.030;2023-05-10T03:02:46;23.52;;;15.02;;
32080;SDS011;18593;51.426;7.030;2023-05-10T03:05:13;24.30;;;14.65;;
32080;SDS011;18593;51.426;7.030;2023-05-10T03:07:42;25.50;;;15.10;;
32080;SDS011;18593;51.426;7.030;2023-05-10T03:10:10;27.40;;;16.52;;
32080;SDS011;18593;51.426;7.030;2023-05-10T03:12:43;26.13;;;16.67;;
32080;SDS011;18593;51.426;7.030;2023-05-10T03:15:25;29.05;;;17.13;;
32080;SDS011;18593;51.426;7.030;2023-05-10T03:18:04;25.77;;;16.13;;
32080;SDS011;18593;51.426;7.030;2023-05-10T03:20:36;26.23;;;16.15;;
32080;SDS011;18593;51.426;7.030;2023-05-10T03:23:11;22.35;;;15.63;;
32080;SDS011;18593;51.426;7.030;2023-05-10T03:25:49;24.10;;;16.30;;
32080;SDS011;18593;51.426;7.030;2023-05-10T03:28:18;22.02;;;15.40;;
32080;SDS011;18593;51.426;7.030;2023-05-10T03:30:47;24.02;;;14.93;;
32080;SDS011;18593;51.426;7.030;2023-05-10T03:33:15;23.50;;;15.50;;
32080;SDS011;18593;51.426;7.030;2023-05-10T03:35:45;23.23;;;14.68;;
32080;SDS011;18593;51.426;7.030;2023-05-10T03:38:14;23.83;;;15.30;;
32080;SDS011;18593;51.426;7.030;2023-05-10T03:40:41;23.27;;;14.75;;
32080;SDS011;18593;51.426;7.030;2023-05-10T03:43:09;25.77;;;14.18;;
32080;SDS011;18593;51.426;7.030;2023-05-10T03:45:36;24.38;;;15.05;;
32080;SDS011;18593;51.426;7.030;2023-05-10T03:48:03;21.65;;;14.43;;
32080;SDS011;18593;51.426;7.030;2023-05-10T03:50:31;23.52;;;14.38;;
32080;SDS011;18593;51.426;7.030;2023-05-10T03:52:58;25.08;;;15.15;;
32080;SDS011;18593;51.426;7.030;2023-05-10T03:55:28;21.65;;;15.05;;
32080;SDS011;18593;51.426;7.030;2023-05-10T03:57:59;27.77;;;15.75;;
32080;SDS011;18593;51.426;7.030;2023-05-10T04:00:26;28.27;;;15.85;;
32080;SDS011;18593;51.426;7.030;2023-05-10T04:02:54;23.15;;;16.25;;
32080;SDS011;18593;51.426;7.030;2023-05-10T04:05:22;27.98;;;16.73;;
32080;SDS011;18593;51.426;7.030;2023-05-10T04:07:51;28.17;;;17.90;;
32080;SDS011;18593;51.426;7.030;2023-05-10T04:10:18;26.65;;;17.08;;
32080;SDS011;18593;51.426;7.030;2023-05-10T04:12:47;26.98;;;17.88;;
32080;SDS011;18593;51.426;7.030;2023-05-10T04:15:14;29.30;;;18.58;;
32080;SDS011;18593;51.426;7.030;2023-05-10T04:17:42;33.35;;;19.92;;
32080;SDS011;18593;51.426;7.030;2023-05-10T04:20:09;39.03;;;20.40;;
32080;SDS011;18593;51.426;7.030;2023-05-10T04:22:38;37.30;;;20.95;;
32080;SDS011;18593;51.426;7.030;2023-05-10T04:25:06;38.67;;;22.50;;
32080;SDS011;18593;51.426;7.030;2023-05-10T04:27:34;36.15;;;22.17;;
32080;SDS011;18593;51.426;7.030;2023-05-10T04:30:06;39.28;;;22.63;;
32080;SDS011;18593;51.426;7.030;2023-05-10T04:32:35;35.93;;;22.80;;
32080;SDS011;18593;51.426;7.030;2023-05-10T04:35:02;37.47;;;23.38;;
32080;SDS011;18593;51.426;7.030;2023-05-10T04:37:30;42.28;;;24.23;;
32080;SDS011;18593;51.426;7.030;2023-05-10T04:39:57;43.58;;;24.70;;
32080;SDS011;18593;51.426;7.030;2023-05-10T04:42:25;37.50;;;23.58;;
32080;SDS011;18593;51.426;7.030;2023-05-10T04:44:52;45.63;;;25.10;;
32080;SDS011;18593;51.426;7.030;2023-05-10T04:47:21;45.05;;;26.60;;
32080;SDS011;18593;51.426;7.030;2023-05-10T04:49:48;47.15;;;25.75;;
32080;SDS011;18593;51.426;7.030;2023-05-10T04:52:15;47.63;;;25.85;;
32080;SDS011;18593;51.426;7.030;2023-05-10T04:54:43;46.47;;;26.17;;
32080;SDS011;18593;51.426;7.030;2023-05-10T04:57:11;43.85;;;25.92;;
32080;SDS011;18593;51.426;7.030;2023-05-10T04:59:38;43.95;;;27.13;;
32080;SDS011;18593;51.426;7.030;2023-05-10T05:02:05;47.50;;;27.10;;
32080;SDS011;18593;51.426;7.030;2023-05-10T05:04:34;47.90;;;27.88;;
32080;SDS011;18593;51.426;7.030;2023-05-10T05:07:01;48.55;;;27.85;;
32080;SDS011;18593;51.426;7.030;2023-05-10T05:09:28;49.03;;;28.08;;
32080;SDS011;18593;51.426;7.030;2023-05-10T05:11:57;47.95;;;28.20;;
32080;SDS011;18593;51.426;7.030;2023-05-10T05:14:24;45.15;;;27.85;;
32080;SDS011;18593;51.426;7.030;2023-05-10T05:16:51;45.72;;;26.63;;
32080;SDS011;18593;51.426;7.030;2023-05-10T05:19:19;42.50;;;26.42;;
32080;SDS011;18593;51.426;7.030;2023-05-10T05:21:48;46.75;;;28.30;;
32080;SDS011;18593;51.426;7.030;2023-05-10T05:24:15;45.95;;;26.85;;
32080;SDS011;18593;51.426;7.030;2023-05-10T05:26:42;49.47;;;28.75;;
32080;SDS011;18593;51.426;7.030;2023-05-10T05:29:09;48.10;;;29.58;;
32080;SDS011;18593;51.426;7.030;2023-05-10T05:31:37;50.67;;;29.13;;
32080;SDS011;18593;51.426;7.030;2023-05-10T05:34:04;48.65;;;29.02;;
32080;SDS011;18593;51.426;7.030;2023-05-10T05:36:31;65.95;;;32.03;;
32080;SDS011;18593;51.426;7.030;2023-05-10T05:39:00;49.17;;;29.58;;
32080;SDS011;18593;51.426;7.030;2023-05-10T05:41:27;52.00;;;31.10;;
32080;SDS011;18593;51.426;7.030;2023-05-10T05:43:54;48.90;;;30.15;;
32080;SDS011;18593;51.426;7.030;2023-05-10T05:46:21;52.50;;;30.98;;
32080;SDS011;18593;51.426;7.030;2023-05-10T05:48:49;46.90;;;28.38;;
32080;SDS011;18593;51.426;7.030;2023-05-10T05:51:16;48.63;;;30.60;;
32080;SDS011;18593;51.426;7.030;2023-05-10T05:53:43;49.10;;;30.85;;
32080;SDS011;18593;51.426;7.030;2023-05-10T05:56:12;51.33;;;30.05;;
32080;SDS011;18593;51.426;7.030;2023-05-10T05:58:39;47.55;;;29.40;;
32080;SDS011;18593;51.426;7.030;2023-05-10T06:01:09;48.70;;;29.77;;
32080;SDS011;18593;51.426;7.030;2023-05-10T06:03:37;49.30;;;28.33;;
32080;SDS011;18593;51.426;7.030;2023-05-10T06:06:04;50.03;;;29.33;;
32080;SDS011;18593;51.426;7.030;2023-05-10T06:08:31;49.22;;;29.70;;
32080;SDS011;18593;51.426;7.030;2023-05-10T06:10:59;56.83;;;31.15;;
32080;SDS011;18593;51.426;7.030;2023-05-10T06:13:27;50.13;;;30.35;;
32080;SDS011;18593;51.426;7.030;2023-05-10T06:15:57;52.00;;;29.92;;
32080;SDS011;18593;51.426;7.030;2023-05-10T06:18:24;47.25;;;29.63;;
32080;SDS011;18593;51.426;7.030;2023-05-10T06:20:52;48.33;;;30.20;;
32080;SDS011;18593;51.426;7.030;2023-05-10T06:23:19;50.00;;;31.30;;
32080;SDS011;18593;51.426;7.030;2023-05-10T06:25:47;57.75;;;31.85;;
32080;SDS011;18593;51.426;7.030;2023-05-10T06:28:14;59.63;;;32.83;;
32080;SDS011;18593;51.426;7.030;2023-05-10T06:30:43;49.88;;;31.38;;
32080;SDS011;18593;51.426;7.030;2023-05-10T06:33:10;49.55;;;31.02;;
32080;SDS011;18593;51.426;7.030;2023-05-10T06:35:37;52.40;;;30.30;;
32080;SDS011;18593;51.426;7.030;2023-05-10T06:38:05;52.90;;;30.88;;
32080;SDS011;18593;51.426;7.030;2023-05-10T06:40:32;50.65;;;31.05;;
32080;SDS011;18593;51.426;7.030;2023-05-10T06:42:59;53.70;;;30.73;;
32080;SDS011;18593;51.426;7.030;2023-05-10T06:45:26;52.58;;;30.25;;
32080;SDS011;18593;51.426;7.030;2023-05-10T06:47:55;49.92;;;29.08;;
32080;SDS011;18593;51.426;7.030;2023-05-10T06:50:22;58.17;;;29.30;;
32080;SDS011;18593;51.426;7.030;2023-05-10T06:52:50;64.57;;;33.13;;
32080;SDS011;18593;51.426;7.030;2023-05-10T06:55:17;58.33;;;31.48;;
32080;SDS011;18593;51.426;7.030;2023-05-10T06:57:45;61.90;;;31.42;;
32080;SDS011;18593;51.426;7.030;2023-05-10T07:00:13;66.65;;;32.00;;
32080;SDS011;18593;51.426;7.030;2023-05-10T07:02:41;61.75;;;30.80;;
32080;SDS011;18593;51.426;7.030;2023-05-10T07:05:10;64.82;;;32.33;;
32080;SDS011;18593;51.426;7.030;2023-05-10T07:07:37;68.75;;;31.73;;
32080;SDS011;18593;51.426;7.030;2023-05-10T07:10:05;73.93;;;33.10;;
32080;SDS011;18593;51.426;7.030;2023-05-10T07:12:33;65.95;;;31.73;;
32080;SDS011;18593;51.426;7.030;2023-05-10T07:15:00;62.97;;;31.20;;
32080;SDS011;18593;51.426;7.030;2023-05-10T07:17:28;61.88;;;31.95;;
32080;SDS011;18593;51.426;7.030;2023-05-10T07:19:55;65.45;;;32.17;;
32080;SDS011;18593;51.426;7.030;2023-05-10T07:22:24;64.70;;;31.65;;
32080;SDS011;18593;51.426;7.030;2023-05-10T07:24:51;65.50;;;32.60;;
32080;SDS011;18593;51.426;7.030;2023-05-10T07:27:18;65.95;;;32.10;;
32080;SDS011;18593;51.426;7.030;2023-05-10T07:29:46;58.03;;;30.42;;
32080;SDS011;18593;51.426;7.030;2023-05-10T07:32:13;67.40;;;32.33;;
32080;SDS011;18593;51.426;7.030;2023-05-10T07:34:40;64.80;;;32.78;;
32080;SDS011;18593;51.426;7.030;2023-05-10T07:37:08;74.38;;;33.10;;
32080;SDS011;18593;51.426;7.030;2023-05-10T07:39:36;60.72;;;31.27;;
32080;SDS011;18593;51.426;7.030;2023-05-10T07:42:04;59.92;;;32.80;;
32080;SDS011;18593;51.426;7.030;2023-05-10T07:44:31;64.82;;;33.35;;
32080;SDS011;18593;51.426;7.030;2023-05-10T07:46:58;67.97;;;33.63;;
32080;SDS011;18593;51.426;7.030;2023-05-10T07:49:25;59.65;;;32.15;;
32080;SDS011;18593;51.426;7.030;2023-05-10T07:51:52;61.22;;;32.47;;
32080;SDS011;18593;51.426;7.030;2023-05-10T07:54:20;62.97;;;32.90;;
32080;SDS011;18593;51.426;7.030;2023-05-10T07:56:48;60.72;;;31.90;;
32080;SDS011;18593;51.426;7.030;2023-05-10T07:59:16;56.97;;;31.33;;
32080;SDS011;18593;51.426;7.030;2023-05-10T08:01:44;62.10;;;32.67;;
32080;SDS011;18593;51.426;7.030;2023-05-10T08:04:11;60.70;;;32.45;;
32080;SDS011;18593;51.426;7.030;2023-05-10T08:06:39;58.67;;;30.65;;
32080;SDS011;18593;51.426;7.030;2023-05-10T08:09:06;66.45;;;32.45;;
32080;SDS011;18593;51.426;7.030;2023-05-10T08:11:33;49.47;;;27.30;;
32080;SDS011;18593;51.426;7.030;2023-05-10T08:14:02;42.80;;;25.20;;
32080;SDS011;18593;51.426;7.030;2023-05-10T08:16:29;52.65;;;25.98;;
32080;SDS011;18593;51.426;7.030;2023-05-10T08:18:57;49.85;;;24.65;;
32080;SDS011;18593;51.426;7.030;2023-05-10T08:21:24;45.28;;;23.13;;
32080;SDS011;18593;51.426;7.030;2023-05-10T08:23:51;43.25;;;21.60;;
32080;SDS011;18593;51.426;7.030;2023-05-10T08:26:19;45.33;;;22.05;;
32080;SDS011;18593;51.426;7.030;2023-05-10T08:28:46;42.42;;;21.52;;
32080;SDS011;18593;51.426;7.030;2023-05-10T08:31:15;37.45;;;20.13;;
32080;SDS011;18593;51.426;7.030;2023-05-10T08:33:43;40.47;;;20.33;;
32080;SDS011;18593;51.426;7.030;2023-05-10T08:36:10;38.13;;;20.23;;
32080;SDS011;18593;51.426;7.030;2023-05-10T08:38:39;37.10;;;20.40;;
32080;SDS011;18593;51.426;7.030;2023-05-10T08:41:06;41.42;;;20.60;;
32080;SDS011;18593;51.426;7.030;2023-05-10T08:43:34;38.03;;;20.02;;
32080;SDS011;18593;51.426;7.030;2023-05-10T08:46:03;39.25;;;20.95;;
32080;SDS011;18593;51.426;7.030;2023-05-10T08:48:35;32.72;;;19.23;;
32080;SDS011;18593;51.426;7.030;2023-05-10T08:51:03;31.80;;;18.13;;
32080;SDS011;18593;51.426;7.030;2023-05-10T08:53:32;38.05;;;18.90;;
32080;SDS011;18593;51.426;7.030;2023-05-10T08:56:02;31.83;;;18.00;;
32080;SDS011;18593;51.426;7.030;2023-05-10T08:58:31;31.90;;;17.70;;
32080;SDS011;18593;51.426;7.030;2023-05-10T09:00:59;35.78;;;19.08;;
32080;SDS011;18593;51.426;7.030;2023-05-10T09:03:27;34.72;;;17.33;;
32080;SDS011;18593;51.426;7.030;2023-05-10T09:05:55;36.13;;;18.08;;
32080;SDS011;18593;51.426;7.030;2023-05-10T09:08:23;34.15;;;18.63;;
32080;SDS011;18593;51.426;7.030;2023-05-10T09:10:51;36.55;;;19.15;;
32080;SDS011;18593;51.426;7.030;2023-05-10T09:13:19;36.70;;;19.23;;
32080;SDS011;18593;51.426;7.030;2023-05-10T09:15:48;41.85;;;20.75;;
32080;SDS011;18593;51.426;7.030;2023-05-10T09:18:16;42.15;;;21.42;;
32080;SDS011;18593;51.426;7.030;2023-05-10T09:20:43;48.75;;;22.35;;
32080;SDS011;18593;51.426;7.030;2023-05-10T09:23:11;46.50;;;23.30;;
32080;SDS011;18593;51.426;7.030;2023-05-10T09:25:39;41.67;;;21.77;;
32080;SDS011;18593;51.426;7.030;2023-05-10T09:28:08;47.72;;;24.02;;
32080;SDS011;18593;51.426;7.030;2023-05-10T09:30:36;51.45;;;24.25;;
32080;SDS011;18593;51.426;7.030;2023-05-10T09:33:04;51.80;;;24.42;;
32080;SDS011;18593;51.426;7.030;2023-05-10T09:35:32;50.72;;;25.08;;
32080;SDS011;18593;51.426;7.030;2023-05-10T09:38:00;56.15;;;26.55;;
32080;SDS011;18593;51.426;7.030;2023-05-10T09:40:32;51.45;;;25.63;;
32080;SDS011;18593;51.426;7.030;2023-05-10T09:43:00;47.45;;;25.83;;
32080;SDS011;18593;51.426;7.030;2023-05-10T09:45:29;49.38;;;24.27;;
32080;SDS011;18593;51.426;7.030;2023-05-10T09:47:58;46.40;;;23.80;;
32080;SDS011;18593;51.426;7.030;2023-05-10T09:50:28;53.40;;;24.90;;
32080;SDS011;18593;51.426;7.030;2023-05-10T09:52:57;45.00;;;24.10;;
32080;SDS011;18593;51.426;7.030;2023-05-10T09:55:26;46.15;;;23.63;;
32080;SDS011;18593;51.426;7.030;2023-05-10T09:58:09;45.03;;;23.05;;
32080;SDS011;18593;51.426;7.030;2023-05-10T10:00:37;46.50;;;23.42;;
32080;SDS011;18593;51.426;7.030;2023-05-10T10:03:06;39.22;;;22.23;;
32080;SDS011;18593;51.426;7.030;2023-05-10T10:05:39;40.42;;;21.25;;
32080;SDS011;18593;51.426;7.030;2023-05-10T10:08:07;37.58;;;20.85;;
32080;SDS011;18593;51.426;7.030;2023-05-10T10:10:37;38.60;;;20.55;;
32080;SDS011;18593;51.426;7.030;2023-05-10T10:13:06;37.15;;;19.75;;
32080;SDS011;18593;51.426;7.030;2023-05-10T10:15:34;36.47;;;19.85;;
32080;SDS011;18593;51.426;7.030;2023-05-10T10:18:01;34.33;;;19.60;;
32080;SDS011;18593;51.426;7.030;2023-05-10T10:20:31;36.47;;;20.45;;
32080;SDS011;18593;51.426;7.030;2023-05-10T10:22:58;32.30;;;18.92;;
32080;SDS011;18593;51.426;7.030;2023-05-10T10:25:25;38.35;;;18.45;;
32080;SDS011;18593;51.426;7.030;2023-05-10T10:27:58;38.58;;;20.35;;
32080;SDS011;18593;51.426;7.030;2023-05-10T10:30:43;35.08;;;20.52;;
32080;SDS011;18593;51.426;7.030;2023-05-10T10:33:29;30.05;;;20.67;;
32080;SDS011;18593;51.426;7.030;2023-05-10T10:36:05;32.22;;;19.45;;
32080;SDS011;18593;51.426;7.030;2023-05-10T10:38:36;31.35;;;18.00;;
32080;SDS011;18593;51.426;7.030;2023-05-10T10:41:28;32.15;;;18.08;;
32080;SDS011;18593;51.426;7.030;2023-05-10T10:44:23;30.10;;;18.75;;
32080;SDS011;18593;51.426;7.030;2023-05-10T10:46:59;28.55;;;17.75;;
32080;SDS011;18593;51.426;7.030;2023-05-10T10:49:30;33.35;;;18.15;;
32080;SDS011;18593;51.426;7.030;2023-05-10T10:52:14;30.48;;;18.00;;
32080;SDS011;18593;51.426;7.030;2023-05-10T10:54:52;31.77;;;19.38;;
32080;SDS011;18593;51.426;7.030;2023-05-10T10:57:24;32.10;;;18.80;;
32080;SDS011;18593;51.426;7.030;2023-05-10T10:59:55;30.63;;;17.55;;
32080;SDS011;18593;51.426;7.030;2023-05-10T11:02:53;29.67;;;17.48;;
32080;SDS011;18593;51.426;7.030;2023-05-10T11:08:14;29.95;;;16.70;;
32080;SDS011;18593;51.426;7.030;2023-05-10T11:13:39;28.20;;;15.93;;
32080;SDS011;18593;51.426;7.030;2023-05-10T11:16:16;29.17;;;16.98;;
32080;SDS011;18593;51.426;7.030;2023-05-10T11:18:52;28.35;;;15.32;;
32080;SDS011;18593;51.426;7.030;2023-05-10T11:21:28;26.75;;;15.07;;
32080;SDS011;18593;51.426;7.030;2023-05-10T11:23:56;24.30;;;14.60;;
32080;SDS011;18593;51.426;7.030;2023-05-10T11:26:25;28.00;;;15.02;;
32080;SDS011;18593;51.426;7.030;2023-05-10T11:28:59;24.08;;;14.73;;
32080;SDS011;18593;51.426;7.030;2023-05-10T11:31:29;28.27;;;15.40;;
32080;SDS011;18593;51.426;7.030;2023-05-10T11:33:57;28.25;;;15.70;;
32080;SDS011;18593;51.426;7.030;2023-05-10T11:36:27;28.73;;;15.48;;
32080;SDS011;18593;51.426;7.030;2023-05-10T11:38:59;21.45;;;13.77;;
32080;SDS011;18593;51.426;7.030;2023-05-10T11:41:27;26.00;;;14.93;;
32080;SDS011;18593;51.426;7.030;2023-05-10T11:43:56;25.38;;;16.10;;
32080;SDS011;18593;51.426;7.030;2023-05-10T11:46:25;26.95;;;16.52;;
32080;SDS011;18593;51.426;7.030;2023-05-10T11:48:55;25.33;;;16.52;;
32080;SDS011;18593;51.426;7.030;2023-05-10T11:51:29;26.92;;;17.13;;
32080;SDS011;18593;51.426;7.030;2023-05-10T11:58:59;25.10;;;15.50;;
32080;SDS011;18593;51.426;7.030;2023-05-10T12:01:27;27.27;;;15.57;;
32080;SDS011;18593;51.426;7.030;2023-05-10T12:03:57;25.73;;;17.25;;
32080;SDS011;18593;51.426;7.030;2023-05-10T12:06:26;27.48;;;16.45;;
32080;SDS011;18593;51.426;7.030;2023-05-10T12:08:56;26.13;;;16.02;;
32080;SDS011;18593;51.426;7.030;2023-05-10T12:11:24;27.10;;;16.42;;
32080;SDS011;18593;51.426;7.030;2023-05-10T12:13:53;22.92;;;14.45;;
32080;SDS011;18593;51.426;7.030;2023-05-10T12:16:21;23.25;;;15.43;;
32080;SDS011;18593;51.426;7.030;2023-05-10T12:18:50;25.73;;;15.10;;
32080;SDS011;18593;51.426;7.030;2023-05-10T12:21:20;22.55;;;14.10;;
32080;SDS011;18593;51.426;7.030;2023-05-10T12:23:48;21.55;;;14.07;;
32080;SDS011;18593;51.426;7.030;2023-05-10T12:26:21;21.88;;;15.77;;
32080;SDS011;18593;51.426;7.030;2023-05-10T12:28:49;22.50;;;14.80;;
32080;SDS011;18593;51.426;7.030;2023-05-10T12:31:16;24.50;;;16.17;;
32080;SDS011;18593;51.426;7.030;2023-05-10T12:33:44;22.05;;;14.20;;
32080;SDS011;18593;51.426;7.030;2023-05-10T12:36:14;23.75;;;14.98;;
32080;SDS011;18593;51.426;7.030;2023-05-10T12:38:44;21.20;;;14.35;;
32080;SDS011;18593;51.426;7.030;2023-05-10T12:41:14;18.88;;;12.30;;
32080;SDS011;18593;51.426;7.030;2023-05-10T12:43:43;17.95;;;11.50;;
32080;SDS011;18593;51.426;7.030;2023-05-10T12:46:12;18.25;;;10.88;;
32080;SDS011;18593;51.426;7.030;2023-05-10T12:48:41;16.98;;;10.40;;
32080;SDS011;18593;51.426;7.030;2023-05-10T12:51:10;17.88;;;11.10;;
32080;SDS011;18593;51.426;7.030;2023-05-10T12:53:40;15.00;;;9.65;;
32080;SDS011;18593;51.426;7.030;2023-05-10T12:56:09;13.30;;;9.05;;
32080;SDS011;18593;51.426;7.030;2023-05-10T12:58:36;13.00;;;8.40;;
32080;SDS011;18593;51.426;7.030;2023-05-10T13:01:04;12.73;;;8.90;;
32080;SDS011;18593;51.426;7.030;2023-05-10T13:03:32;20.35;;;8.88;;
32080;SDS011;18593;51.426;7.030;2023-05-10T13:05:59;13.38;;;8.80;;
32080;SDS011;18593;51.426;7.030;2023-05-10T13:08:26;13.98;;;7.93;;
32080;SDS011;18593;51.426;7.030;2023-05-10T13:10:58;12.00;;;7.75;;
32080;SDS011;18593;51.426;7.030;2023-05-10T13:13:26;12.68;;;7.40;;
32080;SDS011;18593;51.426;7.030;2023-05-10T13:15:54;12.13;;;7.95;;
32080;SDS011;18593;51.426;7.030;2023-05-10T13:18:21;16.05;;;7.03;;
32080;SDS011;18593;51.426;7.030;2023-05-10T13:20:49;12.13;;;7.47;;
32080;SDS011;18593;51.426;7.030;2023-05-10T13:23:16;9.98;;;7.00;;
32080;SDS011;18593;51.426;7.030;2023-05-10T13:25:43;10.30;;;6.68;;
32080;SDS011;18593;51.426;7.030;2023-05-10T13:28:11;11.43;;;5.85;;
32080;SDS011;18593;51.426;7.030;2023-05-10T13:30:39;8.15;;;5.65;;
32080;SDS011;18593;51.426;7.030;2023-05-10T13:33:06;10.27;;;6.38;;
32080;SDS011;18593;51.426;7.030;2023-05-10T13:35:34;10.15;;;6.78;;
32080;SDS011;18593;51.426;7.030;2023-05-10T13:38:01;11.95;;;6.80;;
32080;SDS011;18593;51.426;7.030;2023-05-10T13:40:28;13.02;;;7.60;;
32080;SDS011;18593;51.426;7.030;2023-05-10T13:42:55;11.48;;;6.78;;
32080;SDS011;18593;51.426;7.030;2023-05-10T13:45:22;11.13;;;7.22;;
32080;SDS011;18593;51.426;7.030;2023-05-10T13:47:51;12.68;;;7.38;;
32080;SDS011;18593;51.426;7.030;2023-05-10T13:50:18;11.43;;;8.05;;
32080;SDS011;18593;51.426;7.030;2023-05-10T13:52:46;11.02;;;7.20;;
32080;SDS011;18593;51.426;7.030;2023-05-10T13:55:13;11.95;;;7.43;;
32080;SDS011;18593;51.426;7.030;2023-05-10T13:57:40;14.07;;;7.93;;
32080;SDS011;18593;51.426;7.030;2023-05-10T14:00:08;12.60;;;7.60;;
32080;SDS011;18593;51.426;7.030;2023-05-10T14:02:37;14.93;;;8.10;;
32080;SDS011;18593;51.426;7.030;2023-05-10T14:05:06;9.65;;;6.20;;
32080;SDS011;18593;51.426;7.030;2023-05-10T14:07:33;11.57;;;5.85;;
32080;SDS011;18593;51.426;7.030;2023-05-10T14:10:01;8.25;;;5.50;;
32080;SDS011;18593;51.426;7.030;2023-05-10T14:12:28;8.23;;;4.95;;
32080;SDS011;18593;51.426;7.030;2023-05-10T14:14:55;9.77;;;5.07;;
32080;SDS011;18593;51.426;7.030;2023-05-10T14:17:23;8.23;;;4.53;;
32080;SDS011;18593;51.426;7.030;2023-05-10T14:19:50;11.02;;;4.78;;
32080;SDS011;18593;51.426;7.030;2023-05-10T14:22:19;10.60;;;4.47;;
32080;SDS011;18593;51.426;7.030;2023-05-10T14:24:47;7.95;;;4.60;;
32080;SDS011;18593;51.426;7.030;2023-05-10T14:27:15;10.63;;;5.63;;
32080;SDS011;18593;51.426;7.030;2023-05-10T14:29:43;11.80;;;6.75;;
32080;SDS011;18593;51.426;7.030;2023-05-10T14:32:10;10.90;;;6.35;;
32080;SDS011;18593;51.426;7.030;2023-05-10T14:34:37;13.10;;;6.30;;
32080;SDS011;18593;51.426;7.030;2023-05-10T14:37:05;10.02;;;6.00;;
32080;SDS011;18593;51.426;7.030;2023-05-10T14:39:33;10.32;;;6.90;;
32080;SDS011;18593;51.426;7.030;2023-05-10T14:42:00;11.05;;;7.13;;
32080;SDS011;18593;51.426;7.030;2023-05-10T14:44:28;12.80;;;8.95;;
32080;SDS011;18593;51.426;7.030;2023-05-10T14:46:55;14.05;;;8.63;;
32080;SDS011;18593;51.426;7.030;2023-05-10T14:49:22;15.20;;;10.00;;
32080;SDS011;18593;51.426;7.030;2023-05-10T14:51:51;16.95;;;10.93;;